Split, Croatia
Current Conditions -  °F | °C
As of 2:30 PM on Tuesday 27 Jan 2015 (Local Time) from LDSP Reporting Station
Clear Clear  
Wind Chill: 50°   Ceiling: Unl
Heat Index: 50°   Visibility: 6mi
Dew Point: 27°   Wind: 5mph
Humidity: 40%   Direction: 290°WNW
Pressure: 29.88"   Gusts: NA
Location:  43.51°N, 16.45°E
Report Text: LDSP 271230Z 29004KT 240V340 CAVOK 10/M03 Q1012 NOSIG
Loading
Personal Weather Stations






























Interactive Weather Map New forecast layout! Learn more

10-Day Weather Forecast

Advertisements
Track Severe Weather on mobile